Time;durP1;ratioP1;P1;durP2;ratioP2;P2;SDS_P1;SDS_P2;PMS_P1;PMS_P2;Temp;Humidity;BMP_temperature;BMP_pressure;BME280_temperature;BME280_humidity;BME280_pressure;Samples;Min_cycle;Max_cycle;Signal;HPM_P1;HPM_P2
2023/09/27 00:00:10;;;;;;;8.55;6.50;;;20.30;62.50;22.00;101828.00;;;;5029584;28;20224;-75
2023/09/27 00:02:38;;;;;;;7.55;6.68;;;20.30;62.50;22.00;101825.00;;;;5028876;28;20200;-75
2023/09/27 00:05:10;;;;;;;7.28;6.55;;;20.30;62.50;22.00;101833.00;;;;5027241;28;20220;-75
2023/09/27 00:07:39;;;;;;;7.95;6.90;;;20.30;62.50;22.00;101834.00;;;;5031108;28;20201;-75
2023/09/27 00:10:28;;;;;;;7.22;6.53;;;20.30;62.40;21.90;101838.00;;;;5029767;28;20295;-74
2023/09/27 00:12:55;;;;;;;7.82;6.75;;;20.30;62.90;22.00;101851.00;;;;5030037;28;20215;-74
2023/09/27 00:15:23;;;;;;;8.05;6.68;;;20.30;62.40;22.00;101856.00;;;;5029808;28;20684;-74
2023/09/27 00:17:50;;;;;;;7.88;7.03;;;20.30;62.40;22.00;101861.00;;;;5029164;28;20287;-74
2023/09/27 00:20:19;;;;;;;8.25;6.22;;;20.30;62.50;21.90;101859.00;;;;5029120;28;20204;-74
2023/09/27 00:22:47;;;;;;;7.72;6.50;;;20.20;62.50;21.90;101855.00;;;;5030164;28;20205;-75
2023/09/27 00:25:14;;;;;;;7.60;6.40;;;20.20;62.50;21.90;101858.00;;;;5030704;28;20223;-74
2023/09/27 00:27:42;;;;;;;10.20;6.22;;;20.20;62.50;21.90;101848.00;;;;5030817;28;20661;-75
2023/09/27 00:30:13;;;;;;;6.97;6.28;;;20.20;62.50;21.90;101853.00;;;;5029638;28;20657;-75
2023/09/27 00:32:41;;;;;;;6.80;6.10;;;20.20;62.60;21.80;101849.00;;;;5029618;28;20293;-75
2023/09/27 00:35:12;;;;;;;7.30;6.45;;;20.10;62.50;21.80;101846.00;;;;5030263;28;20227;-75
2023/09/27 00:37:40;;;;;;;7.65;6.80;;;20.10;62.50;21.80;101842.00;;;;5030132;28;20317;-75
2023/09/27 00:40:10;;;;;;;7.78;6.97;;;20.10;62.60;21.80;101846.00;;;;5026860;28;20573;-75
2023/09/27 00:42:38;;;;;;;8.80;7.35;;;20.10;62.50;21.70;101834.00;;;;5030606;28;20200;-74
2023/09/27 00:45:07;;;;;;;7.85;6.78;;;20.00;62.50;21.70;101835.00;;;;5032851;28;20219;-76
2023/09/27 00:47:35;;;;;;;9.73;6.80;;;20.00;62.50;21.70;101826.00;;;;5034592;28;20200;-74
2023/09/27 00:50:03;;;;;;;8.82;6.63;;;20.00;62.50;21.60;101820.00;;;;5033637;28;20200;-75
2023/09/27 00:52:31;;;;;;;6.53;5.75;;;20.00;62.50;21.60;101824.00;;;;5033745;28;20675;-75
2023/09/27 00:55:00;;;;;;;8.57;5.88;;;19.90;62.50;21.60;101823.00;;;;5034125;28;20238;-75
2023/09/27 00:57:27;;;;;;;8.35;6.80;;;19.90;62.60;21.60;101819.00;;;;5031046;28;20184;-76
2023/09/27 00:59:55;;;;;;;6.22;5.63;;;19.90;62.50;21.50;101817.00;;;;5032594;28;20203;-76
2023/09/27 01:02:23;;;;;;;7.05;6.15;;;19.90;62.60;21.50;101823.00;;;;5033914;28;20649;-75
2023/09/27 01:04:50;;;;;;;7.00;6.28;;;19.80;62.60;21.50;101813.00;;;;5033027;28;20595;-75
2023/09/27 01:07:18;;;;;;;7.00;6.25;;;19.80;62.60;21.50;101823.00;;;;5033435;28;20201;-75
2023/09/27 01:09:45;;;;;;;7.05;6.25;;;19.80;62.70;21.50;101815.00;;;;5033671;28;20220;-75
2023/09/27 01:12:13;;;;;;;7.28;6.53;;;19.80;62.70;21.40;101816.00;;;;5027774;28;20650;-75
2023/09/27 01:14:41;;;;;;;7.47;6.72;;;19.80;62.80;21.40;101821.00;;;;5033881;28;20203;-75
2023/09/27 01:17:10;;;;;;;8.13;6.57;;;19.70;62.80;21.40;101817.00;;;;5034087;28;20211;-76
2023/09/27 01:19:38;;;;;;;8.57;7.15;;;19.70;62.80;21.40;101811.00;;;;5027912;28;20662;-75
2023/09/27 01:22:05;;;;;;;6.82;6.13;;;19.70;62.80;21.40;101801.00;;;;5020476;28;20192;-76
2023/09/27 01:24:37;;;;;;;8.13;7.28;;;19.70;62.80;21.30;101800.00;;;;5030570;28;20216;-76
2023/09/27 01:27:10;;;;;;;9.18;7.13;;;19.70;62.90;21.30;101795.00;;;;5033654;28;20200;-75
2023/09/27 01:29:37;;;;;;;8.52;6.38;;;19.70;63.00;21.30;101797.00;;;;5033981;28;20654;-74
2023/09/27 01:32:05;;;;;;;8.23;7.20;;;19.60;62.90;21.30;101796.00;;;;5034714;28;20199;-76
2023/09/27 01:34:32;;;;;;;9.32;7.20;;;19.60;62.90;21.30;101802.00;;;;5033525;28;20275;-75
2023/09/27 01:36:59;;;;;;;9.02;7.80;;;19.60;63.00;21.30;101809.00;;;;5033381;28;20196;-74
2023/09/27 01:39:28;;;;;;;9.02;6.97;;;19.60;63.00;21.30;101812.00;;;;5034192;28;20196;-74
2023/09/27 01:41:56;;;;;;;8.30;7.13;;;19.50;63.00;21.20;101811.00;;;;5031928;28;20635;-75
2023/09/27 01:44:23;;;;;;;8.65;6.93;;;19.50;63.00;21.20;101817.00;;;;5034215;28;20235;-74
2023/09/27 01:46:50;;;;;;;10.85;7.07;;;19.50;63.00;21.20;101813.00;;;;5033953;28;20214;-75
2023/09/27 01:49:17;;;;;;;8.27;7.38;;;19.50;63.10;21.20;101792.00;;;;5023576;28;20201;-75
2023/09/27 01:51:45;;;;;;;9.13;6.90;;;19.50;63.10;21.20;101790.00;;;;5032150;28;20193;-75
2023/09/27 01:54:12;;;;;;;7.95;6.78;;;19.40;63.00;21.20;101786.00;;;;5031222;28;20259;-75
2023/09/27 01:56:39;;;;;;;7.57;6.82;;;19.50;63.10;21.10;101786.00;;;;5032804;28;20574;-74
2023/09/27 01:59:07;;;;;;;7.30;6.60;;;19.40;63.10;21.10;101787.00;;;;5034371;28;20297;-73
2023/09/27 02:01:34;;;;;;;7.85;7.05;;;19.40;63.10;21.10;101791.00;;;;5032145;28;20886;-75
2023/09/27 02:04:02;;;;;;;7.20;6.47;;;19.40;63.10;21.10;101792.00;;;;5032941;28;20238;-74
2023/09/27 02:06:29;;;;;;;7.30;6.53;;;19.40;63.10;21.10;101803.00;;;;5032571;28;20193;-73
2023/09/27 02:08:56;;;;;;;7.18;6.50;;;19.30;63.00;21.00;101806.00;;;;5033908;28;20212;-73
2023/09/27 02:11:25;;;;;;;7.97;6.80;;;19.30;63.10;21.00;101812.00;;;;5030678;28;20542;-73
2023/09/27 02:13:52;;;;;;;7.38;6.28;;;19.30;63.20;21.00;101824.00;;;;5021268;28;20661;-75
2023/09/27 02:16:21;;;;;;;8.38;6.57;;;19.30;63.20;21.00;101822.00;;;;5030257;28;20235;-74
2023/09/27 02:18:49;;;;;;;9.05;7.00;;;19.30;63.30;21.00;101812.00;;;;5029544;28;20197;-74
2023/09/27 02:21:16;;;;;;;9.93;7.70;;;19.20;63.30;21.00;101812.00;;;;5032114;28;20193;-74
2023/09/27 02:23:43;;;;;;;8.02;7.22;;;19.20;63.30;20.90;101814.00;;;;5031326;28;20199;-75
2023/09/27 02:26:11;;;;;;;7.32;6.68;;;19.20;63.30;20.90;101820.00;;;;5032635;28;20672;-74
2023/09/27 02:28:38;;;;;;;6.68;6.00;;;19.20;63.30;20.90;101822.00;;;;5031417;28;20224;-75
2023/09/27 02:31:10;;;;;;;7.85;6.53;;;19.20;63.30;20.80;101833.00;;;;5032551;28;20199;-75
2023/09/27 02:33:40;;;;;;;7.57;6.68;;;19.20;63.30;20.80;101836.00;;;;5030587;28;20228;-75
2023/09/27 02:36:08;;;;;;;6.97;6.32;;;19.20;63.30;20.80;101826.00;;;;5019133;28;20296;-76
2023/09/27 02:38:37;;;;;;;10.68;7.25;;;19.10;63.20;20.80;101819.00;;;;5032752;28;20661;-75
2023/09/27 02:41:04;;;;;;;7.85;7.05;;;19.10;63.20;20.80;101812.00;;;;5032794;28;20287;-74
2023/09/27 02:43:32;;;;;;;8.45;7.05;;;19.10;63.20;20.80;101804.00;;;;5031900;28;20208;-74
2023/09/27 02:45:59;;;;;;;7.93;7.07;;;19.10;63.20;20.80;101801.00;;;;5032166;28;20232;-74
2023/09/27 02:48:27;;;;;;;7.40;6.50;;;19.10;63.20;20.70;101804.00;;;;5032784;28;20199;-74
2023/09/27 02:50:57;;;;;;;8.38;6.88;;;19.00;63.20;20.70;101805.00;;;;5032034;28;20200;-75
2023/09/27 02:53:24;;;;;;;7.70;6.60;;;19.00;63.20;20.70;101804.00;;;;5032618;28;20307;-74
2023/09/27 02:55:51;;;;;;;6.45;5.82;;;19.00;63.20;20.70;101804.00;;;;5030163;28;20196;-74
2023/09/27 02:58:18;;;;;;;7.55;6.82;;;19.00;63.30;20.70;101805.00;;;;5033100;28;20195;-74
2023/09/27 03:00:45;;;;;;;7.32;6.63;;;18.90;63.20;20.60;101812.00;;;;5031122;28;20279;-74
2023/09/27 03:03:13;;;;;;;7.30;6.30;;;18.90;63.20;20.60;101815.00;;;;5023243;28;20193;-73
2023/09/27 03:05:41;;;;;;;7.50;6.38;;;18.90;63.20;20.60;101817.00;;;;5032628;28;20216;-74
2023/09/27 03:08:10;;;;;;;7.43;5.90;;;18.90;63.30;20.60;101819.00;;;;5030997;28;20189;-76
2023/09/27 03:10:40;;;;;;;8.10;6.97;;;18.80;63.30;20.50;101823.00;;;;5031830;28;20661;-76
2023/09/27 03:13:09;;;;;;;8.40;5.93;;;18.80;63.30;20.50;101819.00;;;;5030520;28;20285;-76
2023/09/27 03:15:36;;;;;;;8.50;6.57;;;18.80;63.30;20.50;101824.00;;;;5032010;28;20579;-73
2023/09/27 03:18:05;;;;;;;7.20;6.45;;;18.80;63.30;20.50;101824.00;;;;5032215;28;20700;-75
2023/09/27 03:20:32;;;;;;;7.55;6.72;;;18.80;63.30;20.50;101831.00;;;;5031733;28;20200;-75
2023/09/27 03:23:00;;;;;;;7.00;6.28;;;18.70;63.20;20.50;101834.00;;;;5027924;28;20280;-74
2023/09/27 03:25:28;;;;;;;7.15;6.00;;;18.70;63.30;20.40;101835.00;;;;5031633;28;20595;-75
2023/09/27 03:27:55;;;;;;;7.22;6.30;;;18.70;63.40;20.40;101832.00;;;;5025125;28;20231;-76
2023/09/27 03:30:22;;;;;;;7.47;6.30;;;18.70;63.40;20.40;101824.00;;;;5027738;28;20565;-76
2023/09/27 03:32:50;;;;;;;7.10;5.50;;;18.70;63.40;20.40;101819.00;;;;5029906;28;20201;-75
2023/09/27 03:35:17;;;;;;;7.32;5.32;;;18.60;63.40;20.40;101803.00;;;;5026335;28;21190;-75
2023/09/27 03:37:46;;;;;;;6.45;5.60;;;18.60;63.30;20.40;101810.00;;;;5027398;28;20203;-74
2023/09/27 03:40:14;;;;;;;6.35;5.70;;;18.60;63.40;20.30;101806.00;;;;5026084;28;20189;-74
2023/09/27 03:42:45;;;;;;;7.70;6.30;;;18.60;63.40;20.30;101807.00;;;;5029626;28;20666;-76
2023/09/27 03:45:14;;;;;;;7.57;5.88;;;18.60;63.50;20.30;101814.00;;;;5018867;28;20223;-75
2023/09/27 03:47:42;;;;;;;6.70;5.97;;;18.60;63.60;20.30;101812.00;;;;5030780;28;20688;-74
2023/09/27 03:50:12;;;;;;;8.27;6.75;;;18.60;63.60;20.30;101819.00;;;;5031578;28;20196;-74
2023/09/27 03:52:40;;;;;;;8.90;6.70;;;18.50;63.50;20.30;101826.00;;;;5031724;28;20622;-74
2023/09/27 03:55:08;;;;;;;8.25;6.90;;;18.50;63.50;20.20;101835.00;;;;5030734;28;20227;-74
2023/09/27 03:57:35;;;;;;;7.10;6.28;;;18.50;63.60;20.30;101842.00;;;;5031400;28;20665;-75
2023/09/27 04:00:07;;;;;;;7.47;6.55;;;18.50;63.60;20.20;101839.00;;;;5030503;28;20200;-74
2023/09/27 04:02:34;;;;;;;6.07;5.47;;;18.50;63.70;20.20;101834.00;;;;5029129;28;20250;-75
2023/09/27 04:05:02;;;;;;;8.07;6.20;;;18.50;63.70;20.20;101835.00;;;;5029716;28;20231;-74
2023/09/27 04:07:29;;;;;;;6.78;5.80;;;18.40;63.70;20.20;101832.00;;;;5030970;28;20200;-75
2023/09/27 04:09:56;;;;;;;6.38;5.65;;;18.50;63.80;20.20;101831.00;;;;5031132;28;20207;-75
2023/09/27 04:12:23;;;;;;;6.80;6.10;;;18.50;63.80;20.20;101831.00;;;;5030272;28;20215;-74
2023/09/27 04:14:50;;;;;;;7.75;6.20;;;18.50;63.80;20.20;101826.00;;;;5029566;28;20262;-74
2023/09/27 04:17:19;;;;;;;6.38;5.70;;;18.40;63.70;20.10;101831.00;;;;5030944;28;20192;-74
2023/09/27 04:19:46;;;;;;;7.32;6.15;;;18.40;63.90;20.10;101831.00;;;;5027184;28;20220;-74
2023/09/27 04:22:13;;;;;;;5.82;5.30;;;18.40;63.70;20.10;101834.00;;;;5030531;28;20287;-75
2023/09/27 04:24:40;;;;;;;6.43;5.78;;;18.40;63.70;20.10;101834.00;;;;5029599;28;20570;-74
2023/09/27 04:27:07;;;;;;;6.88;5.60;;;18.40;63.70;20.10;101840.00;;;;5028502;28;20192;-75
2023/09/27 04:29:34;;;;;;;6.30;5.70;;;18.40;63.70;20.10;101853.00;;;;5029623;28;20223;-74
2023/09/27 04:32:01;;;;;;;7.18;6.10;;;18.40;63.70;20.10;101847.00;;;;5029326;28;20196;-75
2023/09/27 04:34:30;;;;;;;9.60;6.20;;;18.30;63.70;20.10;101843.00;;;;5030282;28;20207;-75
2023/09/27 04:36:57;;;;;;;7.32;5.68;;;18.30;63.80;20.10;101841.00;;;;5031126;28;20223;-74
2023/09/27 04:39:30;;;;;;;5.93;5.32;;;18.30;63.80;20.00;101837.00;;;;5028479;28;20194;-74
2023/09/27 04:41:58;;;;;;;6.38;5.78;;;18.30;63.80;20.00;101840.00;;;;5031131;28;20192;-74
2023/09/27 04:44:25;;;;;;;6.75;6.15;;;18.30;63.80;20.00;101843.00;;;;5028797;28;20224;-74
2023/09/27 04:46:52;;;;;;;7.10;6.20;;;18.30;63.80;20.00;101847.00;;;;5026711;28;20286;-74
2023/09/27 04:49:19;;;;;;;6.95;6.20;;;18.30;63.90;20.00;101853.00;;;;5028814;28;20204;-75
2023/09/27 04:51:48;;;;;;;8.10;6.45;;;18.20;63.80;20.00;101843.00;;;;5022477;28;20196;-73
2023/09/27 04:54:15;;;;;;;7.82;6.50;;;18.30;63.90;20.00;101834.00;;;;5027000;28;20290;-75
2023/09/27 04:56:42;;;;;;;6.93;5.80;;;18.30;63.90;20.00;101830.00;;;;5028964;28;20654;-74
2023/09/27 04:59:09;;;;;;;7.10;6.40;;;18.20;63.90;20.00;101830.00;;;;5023358;28;20201;-75
2023/09/27 05:01:36;;;;;;;7.45;6.60;;;18.30;64.00;20.00;101827.00;;;;5024923;28;20200;-74
2023/09/27 05:04:03;;;;;;;7.63;6.68;;;18.20;64.00;20.00;101823.00;;;;5025999;28;20196;-74
2023/09/27 05:06:32;;;;;;;8.02;6.97;;;18.20;64.00;20.00;101809.00;;;;5029236;28;20220;-76
2023/09/27 05:09:00;;;;;;;8.18;7.38;;;18.20;64.00;20.00;101809.00;;;;5027646;28;20286;-74
2023/09/27 05:11:27;;;;;;;8.90;7.75;;;18.20;64.10;20.00;101816.00;;;;5029599;28;20657;-75
2023/09/27 05:13:54;;;;;;;7.78;6.85;;;18.20;64.10;20.00;101820.00;;;;5030261;28;20291;-75
2023/09/27 05:16:22;;;;;;;7.85;6.88;;;18.20;64.20;20.00;101812.00;;;;5030795;28;20197;-75
2023/09/27 05:18:49;;;;;;;9.85;7.30;;;18.20;64.20;20.00;101814.00;;;;5026597;28;20262;-75
2023/09/27 05:21:16;;;;;;;8.50;7.68;;;18.20;64.20;19.90;101824.00;;;;5029164;28;20196;-74
2023/09/27 05:23:43;;;;;;;9.32;7.95;;;18.20;64.30;20.00;101824.00;;;;5026055;28;20207;-75
2023/09/27 05:26:17;;;;;;;8.45;7.65;;;18.20;64.30;20.00;101832.00;;;;5026847;28;20224;-74
2023/09/27 05:28:44;;;;;;;9.05;7.88;;;18.20;64.40;20.00;101829.00;;;;5028220;28;20845;-74
2023/09/27 05:31:11;;;;;;;9.43;8.52;;;18.20;64.40;20.00;101820.00;;;;5031278;28;20196;-75
2023/09/27 05:33:38;;;;;;;9.68;7.85;;;18.20;64.40;20.00;101820.00;;;;5033577;28;20196;-75
2023/09/27 05:36:06;;;;;;;8.90;7.93;;;18.20;64.50;20.00;101812.00;;;;5032364;28;20197;-76
2023/09/27 05:38:33;;;;;;;8.07;7.25;;;18.20;64.50;20.00;101809.00;;;;5032629;28;20204;-75
2023/09/27 05:41:00;;;;;;;8.77;7.88;;;18.20;64.60;20.00;101808.00;;;;5034295;28;20199;-74
2023/09/27 05:43:28;;;;;;;8.50;7.68;;;18.30;64.70;20.00;101807.00;;;;5033096;28;20202;-74
2023/09/27 05:45:56;;;;;;;8.80;7.90;;;18.30;64.70;20.00;101805.00;;;;5032996;28;20230;-76
2023/09/27 05:48:24;;;;;;;8.63;7.70;;;18.20;64.70;20.00;101795.00;;;;5031548;28;20615;-75
2023/09/27 05:50:51;;;;;;;8.68;7.78;;;18.30;64.80;20.00;101801.00;;;;5034053;28;20192;-75
2023/09/27 05:53:18;;;;;;;9.45;7.68;;;18.30;64.90;20.10;101810.00;;;;5030032;28;20725;-74
2023/09/27 05:55:46;;;;;;;9.30;7.70;;;18.30;64.90;20.10;101808.00;;;;5032014;28;20192;-74
2023/09/27 05:58:13;;;;;;;9.50;8.57;;;18.30;65.00;20.10;101811.00;;;;5033688;28;20689;-74
2023/09/27 06:00:46;;;;;;;11.00;7.45;;;18.30;65.00;20.10;101813.00;;;;5026841;28;20197;-74
2023/09/27 06:03:13;;;;;;;8.63;7.30;;;18.40;65.10;20.10;101816.00;;;;5030004;28;20207;-74
2023/09/27 06:05:41;;;;;;;9.60;7.93;;;18.40;65.20;20.10;101810.00;;;;5025630;28;20569;-74
2023/09/27 06:08:08;;;;;;;8.95;8.05;;;18.40;65.20;20.20;101809.00;;;;5031224;28;20196;-76
2023/09/27 06:10:35;;;;;;;7.68;6.88;;;18.40;65.30;20.20;101808.00;;;;5031394;28;20211;-73
2023/09/27 06:13:03;;;;;;;11.88;8.63;;;18.40;65.40;20.20;101810.00;;;;5030540;28;20654;-75
2023/09/27 06:15:34;;;;;;;9.93;8.65;;;18.40;65.40;20.20;101792.00;;;;5027376;28;20280;-76
2023/09/27 06:18:02;;;;;;;9.35;7.15;;;18.50;65.50;20.30;101797.00;;;;5017446;28;20271;-75
2023/09/27 06:20:30;;;;;;;9.82;8.55;;;18.50;66.30;20.30;101801.00;;;;5033030;28;20553;-75
2023/09/27 06:23:03;;;;;;;8.85;8.00;;;18.50;65.50;20.40;101804.00;;;;5033007;28;20216;-76
2023/09/27 06:25:30;;;;;;;8.45;7.63;;;18.60;65.60;20.40;101799.00;;;;5032230;28;20386;-76
2023/09/27 06:27:57;;;;;;;8.63;7.78;;;18.70;65.70;20.40;101805.00;;;;5033130;28;20606;-75
2023/09/27 06:30:24;;;;;;;9.40;7.45;;;18.70;65.70;20.50;101802.00;;;;5032865;28;20196;-75
2023/09/27 06:32:51;;;;;;;9.70;7.80;;;18.70;65.70;20.50;101812.00;;;;5032250;28;20200;-76
2023/09/27 06:35:20;;;;;;;8.73;7.82;;;18.80;65.80;20.60;101823.00;;;;5033230;28;20205;-75
2023/09/27 06:37:49;;;;;;;8.80;7.93;;;18.80;65.80;20.60;101824.00;;;;5033549;28;20565;-75
2023/09/27 06:40:17;;;;;;;8.48;7.38;;;18.80;65.80;20.60;101818.00;;;;5032651;28;20193;-76
2023/09/27 06:42:45;;;;;;;8.02;7.22;;;18.90;65.90;20.70;101821.00;;;;5031347;28;20196;-77
2023/09/27 06:45:13;;;;;;;8.82;7.95;;;18.90;65.90;20.80;101820.00;;;;5030686;28;20459;-76
2023/09/27 06:47:44;;;;;;;9.65;7.68;;;19.00;66.10;20.80;101818.00;;;;5033177;28;20299;-75
2023/09/27 06:50:12;;;;;;;9.15;7.85;;;19.10;66.20;20.90;101813.00;;;;5031684;28;20626;-77
2023/09/27 06:52:40;;;;;;;9.98;9.00;;;19.10;66.20;20.90;101811.00;;;;5031994;28;20283;-77
2023/09/27 06:55:11;;;;;;;9.45;8.45;;;19.20;66.20;20.90;101816.00;;;;5032779;28;20303;-78
2023/09/27 06:57:39;;;;;;;9.93;7.50;;;19.20;66.10;21.00;101818.00;;;;5033307;28;20200;-76
2023/09/27 07:00:13;;;;;;;8.95;8.05;;;19.20;66.00;21.00;101804.00;;;;5031385;28;20311;-77
2023/09/27 07:02:42;;;;;;;9.63;7.90;;;19.30;66.10;21.00;101806.00;;;;5029216;28;20291;-77
2023/09/27 07:05:11;;;;;;;8.50;7.65;;;19.40;66.10;21.10;101801.00;;;;5032067;28;20668;-78
2023/09/27 07:07:40;;;;;;;9.77;7.50;;;19.40;66.00;21.10;101814.00;;;;5032100;28;20669;-76
2023/09/27 07:10:09;;;;;;;8.13;7.15;;;19.40;66.60;21.20;101822.00;;;;5032047;28;20219;-75
2023/09/27 07:12:37;;;;;;;9.00;8.10;;;19.50;66.00;21.20;101830.00;;;;5029064;28;20649;-78
2023/09/27 07:15:09;;;;;;;11.68;8.00;;;19.50;66.00;21.20;101812.00;;;;5031372;28;20395;-77
2023/09/27 07:17:37;;;;;;;8.52;7.72;;;19.50;65.90;21.30;101829.00;;;;5029766;28;20716;-77
2023/09/27 07:20:14;;;;;;;8.90;7.55;;;19.50;65.80;21.30;101836.00;;;;5032563;28;20198;-76
2023/09/27 07:22:42;;;;;;;9.48;7.30;;;19.60;65.90;21.30;101829.00;;;;5032387;28;20208;-77
2023/09/27 07:25:15;;;;;;;8.98;7.97;;;19.60;65.90;21.40;101827.00;;;;5030532;28;20287;-78
2023/09/27 07:27:43;;;;;;;9.40;8.43;;;19.70;65.90;21.40;101836.00;;;;5030697;28;20212;-79
2023/09/27 07:30:11;;;;;;;9.57;8.60;;;19.70;65.80;21.40;101829.00;;;;5028508;28;20683;-77
2023/09/27 07:32:40;;;;;;;8.75;7.95;;;19.80;65.90;21.50;101839.00;;;;5028230;28;20266;-77
2023/09/27 07:35:09;;;;;;;9.85;8.93;;;19.80;66.00;21.60;101835.00;;;;5028387;28;20196;-79
2023/09/27 07:37:37;;;;;;;9.05;8.00;;;19.80;66.10;21.60;101823.00;;;;5028411;28;20588;-77
2023/09/27 07:40:10;;;;;;;9.13;8.23;;;19.90;66.20;21.70;101838.00;;;;5030878;28;20603;-78
2023/09/27 07:42:37;;;;;;;11.32;9.10;;;19.90;66.20;21.80;101848.00;;;;5024389;28;20204;-78
2023/09/27 07:45:06;;;;;;;12.77;9.30;;;20.00;66.30;21.80;101856.00;;;;5027267;28;20223;-76
2023/09/27 07:47:34;;;;;;;9.50;8.57;;;20.00;66.20;21.90;101860.00;;;;5031204;28;20235;-77
2023/09/27 07:50:01;;;;;;;11.57;9.50;;;20.10;66.30;22.00;101860.00;;;;5021707;28;20203;-77
2023/09/27 07:52:30;;;;;;;11.93;8.82;;;20.20;66.30;22.00;101864.00;;;;5028402;28;20287;-76
2023/09/27 07:54:58;;;;;;;9.77;8.77;;;20.20;66.20;22.00;101853.00;;;;5027471;28;20319;-79
2023/09/27 07:57:26;;;;;;;11.30;10.18;;;20.30;66.10;22.10;101857.00;;;;5030447;28;20203;-77
2023/09/27 07:59:54;;;;;;;10.98;9.02;;;20.30;66.00;22.20;101870.00;;;;5029090;28;20196;-78
2023/09/27 08:02:21;;;;;;;10.48;8.82;;;20.40;66.10;22.20;101865.00;;;;5027351;28;20196;-77
2023/09/27 08:04:49;;;;;;;11.07;8.35;;;20.50;66.20;22.30;101864.00;;;;5028334;28;20285;-77
2023/09/27 08:07:16;;;;;;;10.35;9.20;;;20.50;66.10;22.40;101860.00;;;;5029465;28;20636;-77
2023/09/27 08:09:43;;;;;;;10.50;9.50;;;20.60;66.10;22.40;101855.00;;;;5028929;28;20303;-77
2023/09/27 08:12:10;;;;;;;10.65;9.57;;;20.70;66.20;22.50;101857.00;;;;5030570;28;20262;-77
2023/09/27 08:14:39;;;;;;;10.98;9.88;;;20.80;66.10;22.60;101862.00;;;;5029512;28;20210;-76
2023/09/27 08:17:06;;;;;;;10.55;9.45;;;20.80;66.10;22.70;101870.00;;;;5029714;28;20234;-77
2023/09/27 08:19:33;;;;;;;9.95;8.82;;;20.90;66.10;22.80;101865.00;;;;5031211;28;20281;-77
2023/09/27 08:22:00;;;;;;;11.23;8.68;;;21.00;66.20;22.90;101869.00;;;;5031046;28;20197;-77
2023/09/27 08:24:27;;;;;;;10.85;9.20;;;21.10;66.30;23.00;101873.00;;;;5029122;28;20559;-76
2023/09/27 08:26:54;;;;;;;15.93;10.10;;;21.20;66.30;23.10;101877.00;;;;5029360;28;20227;-77
2023/09/27 08:29:21;;;;;;;12.20;9.25;;;21.30;66.30;23.20;101884.00;;;;5023551;28;20565;-77
2023/09/27 08:31:50;;;;;;;13.23;10.18;;;21.40;66.20;23.30;101875.00;;;;5027025;28;20188;-77
2023/09/27 08:34:17;;;;;;;15.50;10.13;;;21.50;66.20;23.40;101875.00;;;;5023810;28;20206;-77
2023/09/27 08:36:45;;;;;;;11.40;9.25;;;21.60;66.20;23.50;101880.00;;;;5028875;28;20207;-77
2023/09/27 08:39:12;;;;;;;11.05;9.95;;;21.70;66.30;23.70;101875.00;;;;5023773;28;21447;-77
2023/09/27 08:41:39;;;;;;;12.77;9.82;;;21.80;66.30;23.80;101875.00;;;;5030473;28;20294;-77
2023/09/27 08:44:07;;;;;;;10.32;8.77;;;21.90;66.20;23.90;101875.00;;;;5023449;28;20284;-77
2023/09/27 08:46:36;;;;;;;12.32;8.27;;;22.10;66.10;24.00;101876.00;;;;5023530;28;20236;-76
2023/09/27 08:49:08;;;;;;;9.30;8.32;;;22.20;66.00;24.10;101881.00;;;;5030758;28;20188;-77
2023/09/27 08:51:36;;;;;;;11.70;8.55;;;22.30;65.90;24.20;101875.00;;;;5018432;28;20208;-77
2023/09/27 08:54:03;;;;;;;11.52;8.15;;;22.40;65.70;24.30;101875.00;;;;5028710;28;20224;-79
2023/09/27 08:56:33;;;;;;;9.43;8.38;;;22.50;65.60;24.40;101871.00;;;;5028024;28;20200;-78
2023/09/27 08:59:01;;;;;;;11.10;8.32;;;22.60;65.50;24.50;101863.00;;;;5029280;28;20192;-78
2023/09/27 09:01:29;;;;;;;8.95;7.93;;;22.70;65.40;24.60;101863.00;;;;5030370;28;20586;-77
2023/09/27 09:03:56;;;;;;;9.27;7.70;;;22.80;65.10;24.60;101862.00;;;;5025997;28;20247;-77
2023/09/27 09:06:26;;;;;;;10.63;7.68;;;22.90;65.00;24.70;101864.00;;;;5032373;28;20220;-77
2023/09/27 09:08:53;;;;;;;9.60;7.75;;;23.00;64.90;24.80;101858.00;;;;5033617;28;20214;-76
2023/09/27 09:11:23;;;;;;;8.35;7.55;;;23.00;64.70;24.80;101853.00;;;;5033310;28;20204;-77
2023/09/27 09:14:04;;;;;;;8.35;7.53;;;23.10;64.70;24.80;101848.00;;;;5031457;28;20207;-79
2023/09/27 09:16:39;;;;;;;8.95;7.40;;;23.20;64.50;24.90;101849.00;;;;5033109;28;20266;-77
2023/09/27 09:19:20;;;;;;;7.53;6.78;;;23.20;64.40;24.90;101834.00;;;;5014388;28;20279;-78
2023/09/27 09:21:57;;;;;;;10.05;7.07;;;23.30;64.30;24.90;101823.00;;;;5024568;28;20291;-77
2023/09/27 09:24:24;;;;;;;10.13;7.43;;;23.30;64.10;25.10;101823.00;;;;5028324;28;20521;-78
2023/09/27 09:27:07;;;;;;;7.45;6.68;;;23.40;64.10;25.00;101824.00;;;;5029505;28;20259;-78
2023/09/27 09:29:52;;;;;;;7.43;6.65;;;23.40;64.00;25.00;101832.00;;;;5032604;28;20843;-77
2023/09/27 09:32:21;;;;;;;7.93;6.80;;;23.40;63.80;25.10;101832.00;;;;5027754;28;20196;-77
2023/09/27 09:34:50;;;;;;;10.00;7.60;;;23.50;63.90;25.20;101816.00;;;;5031113;28;20291;-78
2023/09/27 09:37:20;;;;;;;8.90;7.82;;;23.60;63.90;25.20;101825.00;;;;5032939;28;20719;-76
2023/09/27 09:39:50;;;;;;;8.43;7.22;;;23.60;63.80;25.30;101820.00;;;;5031283;28;20192;-77
2023/09/27 09:42:32;;;;;;;9.80;7.85;;;23.60;63.80;25.20;101819.00;;;;5032931;28;20196;-77
2023/09/27 09:45:05;;;;;;;9.55;7.93;;;23.70;63.70;25.30;101819.00;;;;5023449;28;20193;-77
2023/09/27 09:47:33;;;;;;;9.68;7.57;;;23.70;63.60;25.30;101813.00;;;;5034182;28;20228;-78
2023/09/27 09:50:00;;;;;;;10.75;8.38;;;23.80;63.50;25.40;101812.00;;;;5027530;28;20200;-77
2023/09/27 09:52:32;;;;;;;13.13;8.95;;;23.80;63.30;25.40;101817.00;;;;5030331;28;20764;-79
2023/09/27 09:54:59;;;;;;;10.35;8.10;;;23.80;63.20;25.50;101812.00;;;;5032317;28;20715;-76
2023/09/27 09:57:35;;;;;;;9.60;8.18;;;23.90;63.30;25.50;101811.00;;;;5029126;28;20197;-77
2023/09/27 10:00:12;;;;;;;9.90;7.28;;;23.90;63.30;25.50;101813.00;;;;5033220;28;20623;-76
2023/09/27 10:02:52;;;;;;;10.30;8.00;;;23.90;63.30;25.50;101817.00;;;;5031668;28;20215;-77
2023/09/27 10:05:21;;;;;;;10.75;9.68;;;24.00;63.00;25.60;101806.00;;;;5033235;28;20704;-78
2023/09/27 10:07:52;;;;;;;11.02;8.38;;;24.00;63.00;25.60;101805.00;;;;5030449;28;20216;-75
2023/09/27 10:10:21;;;;;;;10.20;8.45;;;24.10;62.90;25.60;101815.00;;;;5019407;28;20224;-76
2023/09/27 10:12:51;;;;;;;10.40;8.95;;;24.10;62.90;25.70;101812.00;;;;5031516;28;20545;-76
2023/09/27 10:15:24;;;;;;;12.73;8.98;;;24.10;62.90;25.70;101811.00;;;;5033428;28;20232;-78
2023/09/27 10:17:51;;;;;;;11.02;9.75;;;24.20;63.00;25.80;101813.00;;;;5030970;28;20200;-75
2023/09/27 10:20:22;;;;;;;9.82;8.75;;;24.20;63.00;25.80;101810.00;;;;5031689;28;20204;-76
2023/09/27 10:22:53;;;;;;;12.75;9.60;;;24.20;62.90;25.80;101813.00;;;;5032365;28;20239;-78
2023/09/27 10:25:35;;;;;;;11.43;9.15;;;24.20;62.80;25.80;101817.00;;;;5021753;28;20205;-79
2023/09/27 10:28:12;;;;;;;10.75;9.43;;;24.30;62.50;25.90;101822.00;;;;5021520;28;20666;-76
2023/09/27 10:31:12;;;;;;;9.25;8.35;;;24.30;62.70;25.90;101818.00;;;;5033073;28;20203;-78
2023/09/27 10:33:40;;;;;;;9.88;8.85;;;24.40;62.40;26.00;101817.00;;;;5031230;28;20291;-77
2023/09/27 10:36:32;;;;;;;10.10;8.73;;;24.40;62.50;26.00;101815.00;;;;5025950;28;20242;-80
2023/09/27 10:39:07;;;;;;;10.43;8.38;;;24.50;62.20;26.10;101809.00;;;;5028223;28;20239;-76
2023/09/27 10:41:48;;;;;;;14.23;8.90;;;24.60;62.30;26.20;101797.00;;;;5018645;28;20227;-75
2023/09/27 10:44:31;;;;;;;9.05;8.07;;;24.60;62.10;26.30;101786.00;;;;5028544;28;20567;-75
2023/09/27 10:46:59;;;;;;;10.20;8.30;;;24.70;61.90;26.40;101772.00;;;;5022657;28;20707;-75
2023/09/27 10:49:29;;;;;;;8.93;8.02;;;24.80;62.30;26.50;101766.00;;;;5028551;28;20200;-74
2023/09/27 10:51:57;;;;;;;9.13;8.23;;;24.90;62.10;26.60;101763.00;;;;5025474;28;20200;-78